Latest Weather Observations for Albion Park

IDN60801

Issued at 3:33 pm EDT Tuesday 3 March 2015 (issued every 30 minutes, with the page automatically refreshed every 10 minutes)

About weather observations | Map of weather stations | Latest weather observations for NSW | Other Formats
Station Details ID: 068241 Name: WOLLONGONG AIRPORT Lat: -34.56 Lon: 150.79 Height: 8.0 m
Data from the previous 72 hours. | See also: Recent months at Albion Park
Date/Time
EDT
Temp
°C
App
Temp
°C
Dew
Point
Rel
Hum
%
Delta-T
°C
Wind Press
QNH
hPa
Press
MSL
hPa
Rain
since 9 am
mm
Dir
 
Spd
km/h
Gust
km/h
Spd
kts
Gust
kts
03/03:30pm 24.4 23.3 16.4 61 4.9 ENE 17 22 9 12 1013.7 1013.7 0.0
03/03:00pm 24.0 23.3 17.3 66 4.2 ENE 17 20 9 11 1013.7 1013.7 0.0
03/02:30pm 24.3 23.5 17.1 64 4.5 ENE 17 20 9 11 1013.9 1013.9 0.0
03/02:00pm 24.5 23.4 17.2 63 4.5 NE 19 26 10 14 1014.1 1014.1 0.0
03/01:30pm 26.0 25.3 18.2 62 4.9 NE 19 24 10 13 1013.8 1013.8 0.0
03/01:00pm 25.7 24.0 17.1 59 5.3 NE 22 28 12 15 1014.0 1014.0 0.0
03/12:30pm 25.7 24.1 16.5 56 5.7 ENE 20 26 11 14 1014.2 1014.2 0.0
03/12:00pm 26.0 24.5 16.8 57 5.7 ENE 20 26 11 14 1014.6 1014.6 0.0
03/11:30am 26.0 24.5 15.4 52 6.4 ENE 17 22 9 12 1015.0 1015.0 0.0
03/11:00am 25.3 23.8 14.1 50 6.6 N 15 22 8 12 1015.3 1015.3 0.0
03/10:30am 24.7 23.0 13.6 50 6.5 N 15 20 8 11 1015.3 1015.3 0.0
03/10:00am 23.9 23.1 14.0 54 5.8 NW 11 17 6 9 1015.4 1015.4 0.0
03/09:30am 23.2 22.9 14.5 58 5.1 NW 9 15 5 8 1015.7 1015.7 0.0
03/09:00am 21.5 22.7 13.7 61 4.5 CALM 0 0 0 0 1015.6 1015.6 0.0
03/08:30am 18.3 20.0 15.2 82 1.8 CALM 0 0 0 0 1015.5 1015.5 0.0
03/08:00am 16.8 18.3 15.8 94 0.6 WNW 2 6 1 3 1015.2 1015.2 0.0
03/07:30am 15.5 16.2 14.5 94 0.6 WNW 4 7 2 4 1015.0 1015.0 0.0
03/07:00am 15.1 15.1 14.1 94 0.6 WNW 7 11 4 6 1014.8 1014.8 0.0
03/06:30am 15.1 15.2 13.8 92 0.7 WNW 6 7 3 4 1014.8 1014.8 0.0
03/06:00am 15.6 14.4 14.0 90 0.9 W 13 15 7 8 1014.6 1014.6 0.0
03/05:30am 15.5 15.3 13.7 89 1.0 W 7 11 4 6 1014.4 1014.4 0.0
03/05:00am 15.9 16.7 13.7 87 1.2 W 2 6 1 3 1014.7 1014.7 0.0
03/04:30am 16.9 16.7 13.6 81 1.9 WNW 7 9 4 5 1014.9 1014.9 0.0
03/04:00am 17.8 17.5 14.3 80 2.0 NW 9 9 5 5 1014.9 1014.9 0.0
03/03:30am 18.7 18.4 14.4 76 2.5 NW 9 11 5 6 1015.1 1015.1 0.0
03/03:00am 19.4 19.3 14.9 75 2.6 NW 9 11 5 6 1015.5 1015.5 0.0
03/02:30am 19.5 20.1 15.8 79 2.2 NNW 7 9 4 5 1016.0 1016.0 0.0
03/02:00am 20.2 20.4 14.6 70 3.3 NNW 7 9 4 5 1016.3 1016.3 0.0
03/01:30am 20.3 20.2 14.9 71 3.2 NNW 9 13 5 7 1016.8 1016.8 0.0
03/01:00am 19.3 19.6 16.0 81 2.0 NW 9 11 5 6 1017.3 1017.3 0.0
03/12:30am 19.5 20.6 16.7 84 1.7 NW 6 7 3 4 1017.5 1017.5 0.0
03/12:00am 19.0 21.2 16.4 85 1.6 CALM 0 6 0 3 1017.6 1017.6 0.0
 
Date/Time
EDT
Temp
°C
App
Temp
°C
Dew
Point
Rel
Hum
%
Delta-T
°C
Wind Press
QNH
hPa
Press
MSL
hPa
Rain
since 9 am
mm
Dir
 
Spd
km/h
Gust
km/h
Spd
kts
Gust
kts
02/11:30pm 19.2 21.5 16.8 86 1.4 CALM 0 0 0 0 1017.7 1017.7 0.0
02/11:00pm 19.3 21.7 17.1 87 1.3 CALM 0 0 0 0 1017.8 1017.8 0.0
02/10:30pm 19.3 20.3 16.9 86 1.5 WSW 7 11 4 6 1017.8 1017.8 0.0
02/10:00pm 19.1 19.7 16.9 87 1.3 W 9 11 5 6 1017.8 1017.8 0.0
02/09:30pm 19.5 20.5 16.9 85 1.6 NW 7 9 4 5 1017.4 1017.4 0.0
02/09:00pm 20.1 21.0 16.7 81 2.1 NW 7 7 4 4 1017.4 1017.4 0.0
02/08:30pm 21.3 21.8 16.5 74 2.9 N 9 11 5 6 1017.5 1017.5 0.0
02/08:00pm 21.3 22.1 16.3 73 3.0 ENE 7 11 4 6 1017.6 1017.6 0.0
02/07:30pm 21.6 21.8 15.7 69 3.5 ENE 9 11 5 6 1017.4 1017.4 0.0
02/07:00pm 22.0 22.1 15.4 66 3.9 ENE 9 13 5 7 1017.2 1017.2 0.0
02/06:30pm 22.2 22.4 15.8 67 3.8 ENE 9 15 5 8 1017.1 1017.1 0.0
02/06:00pm 22.2 22.6 15.3 65 4.1 ESE 7 11 4 6 1017.0 1017.0 0.0
02/05:30pm 22.5 23.3 16.3 68 3.8 E 7 11 4 6 1017.0 1017.0 0.0
02/05:00pm 22.6 23.5 16.2 67 3.9 ESE 6 11 3 6 1017.1 1017.1 0.0
02/04:30pm 22.3 22.6 15.9 67 3.9 E 9 15 5 8 1017.1 1017.1 0.0
02/04:00pm 22.4 22.1 15.5 65 4.1 ESE 11 17 6 9 1017.2 1017.2 0.0
02/03:30pm 22.5 22.1 16.3 68 3.8 ESE 13 19 7 10 1017.5 1017.5 0.0
02/03:00pm 22.6 22.1 15.9 66 4.0 E 13 20 7 11 1017.8 1017.8 0.0
02/02:30pm 23.0 22.6 16.1 65 4.2 ESE 13 20 7 11 1017.8 1017.8 0.0
02/02:00pm 22.9 22.1 15.2 62 4.6 E 13 20 7 11 1018.1 1018.1 0.0
02/01:30pm 23.0 22.3 15.3 62 4.6 SSE 13 24 7 13 1018.4 1018.4 0.0
02/01:00pm 22.7 21.8 14.8 61 4.7 SE 13 26 7 14 1018.8 1018.8 0.0
02/12:30pm 22.4 21.1 14.8 62 4.5 SE 15 20 8 11 1019.3 1019.3 0.0
02/12:00pm 23.0 21.6 15.6 63 4.4 SSE 17 28 9 15 1019.2 1019.2 0.0
02/11:30am 23.1 21.8 15.7 63 4.5 SSE 17 28 9 15 1019.6 1019.6 0.0
02/11:00am 22.2 20.3 14.3 61 4.6 SSE 17 26 9 14 1019.4 1019.4 0.0
02/10:30am 22.1 20.6 14.2 61 4.6 S 15 24 8 13 1019.3 1019.3 0.0
02/10:00am 21.8 20.3 14.2 62 4.4 SSW 15 24 8 13 1019.6 1019.6 0.0
02/09:30am 21.2 19.8 13.4 61 4.5 S 13 22 7 12 1019.4 1019.4 0.0
02/09:00am 20.5 19.0 13.2 63 4.2 SSW 13 17 7 9 1019.2 1019.2 4.2
02/08:30am 19.1 17.7 12.1 64 3.9 WSW 11 15 6 8 1019.1 1019.1 4.2
02/08:00am 17.9 16.1 12.1 69 3.2 SW 13 15 7 8 1019.1 1019.1 4.2
02/07:30am 16.4 15.0 12.2 76 2.3 WSW 11 13 6 7 1018.8 1018.8 4.2
02/07:00am 16.6 15.1 11.9 74 2.6 W 11 15 6 8 1018.6 1018.6 4.2
02/06:30am 16.1 14.6 11.9 76 2.3 W 11 15 6 8 1018.2 1018.2 4.2
02/06:00am 16.4 15.2 11.6 73 2.6 WSW 9 17 5 9 1017.6 1017.6 4.2
02/05:30am 17.2 15.4 12.1 72 2.8 SSW 13 19 7 10 1017.6 1017.6 4.2
02/05:00am 15.4 14.0 12.2 81 1.7 WSW 11 15 6 8 1017.6 1017.6 4.2
02/04:30am 16.0 14.7 12.4 79 2.0 W 11 15 6 8 1017.2 1017.2 4.2
02/04:00am 16.5 15.4 11.9 74 2.5 WSW 9 15 5 8 1017.1 1017.1 4.2
02/03:30am 17.3 15.3 11.6 69 3.1 SSW 13 17 7 9 1017.3 1017.3 4.2
02/03:00am 17.7 15.4 11.7 68 3.3 SSW 15 22 8 12 1017.5 1017.5 4.2
02/02:30am 17.9 15.4 11.2 65 3.6 SW 15 24 8 13 1017.5 1017.5 4.2
02/02:00am 18.5 15.2 11.6 64 3.8 SSW 20 32 11 17 1017.5 1017.5 4.2
02/01:30am 18.5 16.3 12.0 66 3.6 SSW 15 22 8 12 1017.6 1017.6 4.2
02/01:00am 18.5 17.2 12.5 68 3.3 S 11 19 6 10 1017.5 1017.5 4.2
02/12:30am 18.8 18.0 12.8 68 3.4 SSE 9 20 5 11 1017.5 1017.5 4.2
02/12:00am 19.0 16.9 12.5 66 3.6 S 15 28 8 15 1017.5 1017.5 4.2
 
Date/Time
EDT
Temp
°C
App
Temp
°C
Dew
Point
Rel
Hum
%
Delta-T
°C
Wind Press
QNH
hPa
Press
MSL
hPa
Rain
since 9 am
mm
Dir
 
Spd
km/h
Gust
km/h
Spd
kts
Gust
kts
01/11:30pm 19.1 16.1 12.6 66 3.6 S 20 32 11 17 1017.0 1017.0 4.2
01/11:00pm 19.6 15.1 12.6 64 3.9 S 28 43 15 23 1017.0 1017.0 4.2
01/10:30pm 19.9 16.8 13.4 66 3.7 S 22 35 12 19 1016.6 1016.6 4.2
01/10:00pm 20.1 17.1 13.6 66 3.7 S 22 39 12 21 1016.2 1016.2 4.2
01/09:31pm 20.3 16.0 13.3 64 4.0 SSE 28 46 15 25 1015.7 1015.7 4.2
01/09:30pm 20.4 16.5 13.4 64 4.0 SSE 26 46 14 25 1015.7 1015.7 4.2
01/09:00pm 20.2 16.5 13.9 67 3.6 S 26 41 14 22 1015.1 1015.1 4.2
01/08:30pm 20.1 17.4 14.5 70 3.3 S 22 33 12 18 1014.4 1014.4 4.2
01/08:00pm 20.0 16.5 14.6 71 3.1 S 26 43 14 23 1013.5 1013.5 4.2
01/07:31pm 20.3 16.4 15.5 74 2.8 S 30 48 16 26 1012.9 1012.9 4.2
01/07:30pm 20.3 16.8 15.5 74 2.8 S 28 43 15 23 1012.8 1012.8 4.2
01/07:00pm 20.0 16.9 15.6 76 2.6 S 26 43 14 23 1012.0 1012.0 4.2
01/06:38pm 20.0 16.7 16.0 78 2.4 S 28 46 15 25 1011.6 1011.6 4.2
01/06:30pm 20.1 16.4 15.9 77 2.5 S 30 43 16 23 1011.6 1011.6 4.2
01/06:19pm 20.1 16.7 16.7 81 2.1 S 30 48 16 26 1011.2 1011.2 4.2
01/06:15pm 20.1 16.2 16.9 82 1.9 S 33 48 18 26 1011.1 1011.1 4.2
01/06:05pm 19.6 15.8 16.6 83 1.8 S 32 54 17 29 1010.7 1010.7 4.2
01/06:00pm 19.7 16.1 17.3 86 1.5 S 32 44 17 24 1010.8 1010.8 4.2
01/05:32pm 20.1 16.8 17.9 87 1.4 SSE 32 50 17 27 1010.0 1010.0 4.2
01/05:30pm 20.1 16.6 17.9 87 1.4 SSE 33 50 18 27 1010.1 1010.1 4.2
01/05:23pm 20.0 16.5 17.8 87 1.4 S 33 50 18 27 1010.5 1010.5 4.2
01/05:00pm 20.6 20.2 19.4 93 0.8 SSE 20 32 11 17 1009.8 1009.8 4.2
01/04:39pm 20.4 18.5 19.4 94 0.6 S 28 48 15 26 1008.6 1008.6 4.2
01/04:34pm 20.5 18.4 19.8 96 0.4 S 30 48 16 26 1008.3 1008.3 4.2
01/04:31pm 20.4 17.3 19.7 96 0.4 S 35 48 19 26 1008.2 1008.2 4.2
01/04:30pm 20.4 17.3 19.7 96 0.4 S 35 52 19 28 1008.2 1008.2 4.2
01/04:29pm 20.4 17.3 19.7 96 0.4 S 35 54 19 29 1008.2 1008.2 4.2
01/04:27pm 20.4 16.9 19.7 96 0.4 S 37 54 20 29 1008.2 1008.2 4.0
01/04:14pm 20.8 16.5 19.6 93 0.8 S 41 56 22 30 1007.8 1007.8 2.8
01/04:00pm 21.5 16.9 19.6 89 1.2 S 43 67 23 36 1007.8 1007.8 2.0
01/03:48pm 21.9 18.1 19.8 88 1.3 S 39 65 21 35 1006.8 1006.8 2.0
01/03:38pm 22.5 21.2 20.6 89 1.2 SSE 28 46 15 25 1006.8 1006.8 2.0
01/03:30pm 23.0 23.6 21.1 89 1.2 SSE 19 28 10 15 1007.1 1007.1 2.0
01/03:20pm 23.0 25.1 20.9 88 1.4 ESE 11 26 6 14 1007.1 1007.1 2.0
01/03:06pm 22.9 22.4 21.4 91 1.0 SSE 26 43 14 23 1006.4 1006.4 2.0
01/03:00pm 23.0 21.7 21.3 90 1.1 SSE 30 52 16 28 1004.4 1004.4 2.0
01/02:58pm 23.2 21.3 21.3 89 1.2 SSE 33 59 18 32 1004.4 1004.4 1.8
01/02:55pm 23.3 20.1 21.0 87 1.5 S 39 59 21 32 1005.0 1005.0 1.6
01/02:45pm 23.5 21.7 21.2 87 1.5 S 32 50 17 27 1006.7 1006.7 1.6
01/02:37pm 24.3 23.1 21.6 85 1.8 S 30 43 16 23 1006.0 1006.0 1.4
01/02:30pm 25.4 24.8 19.8 71 3.6 SSE 22 41 12 22 1005.2 1005.2 0.0
01/02:00pm 27.1 26.5 20.4 66 4.4 SE 24 39 13 21 1004.6 1004.6 0.0
01/01:30pm 29.1 29.8 20.5 59 5.7 ESE 17 22 9 12 1004.5 1004.5 0.0
01/01:00pm 28.9 30.3 20.4 60 5.6 ESE 13 19 7 10 1004.3 1004.3 0.0
01/12:30pm 31.5 32.4 20.8 53 7.1 ENE 17 22 9 12 1004.0 1004.0 0.0
01/12:00pm 31.1 32.5 21.0 55 6.8 ESE 15 20 8 11 1004.6 1004.6 0.0
01/11:30am 31.3 33.2 20.6 53 7.1 ENE 11 15 6 8 1004.8 1004.8 0.0
01/11:00am 30.5 30.7 20.1 53 6.9 ENE 19 22 10 12 1005.0 1005.0 0.0
01/10:30am 30.7 32.3 19.1 50 7.6 NNE 9 13 5 7 1005.1 1005.1 0.0
01/10:00am 29.5 30.4 18.3 51 7.2 NNE 11 13 6 7 1005.0 1005.0 0.0
01/09:30am 27.8 29.8 19.1 59 5.6 NE 7 11 4 6 1005.1 1005.1 0.0
01/09:00am 24.8 27.2 19.6 73 3.4 S 6 9 3 5 1005.1 1005.1 0.0
01/08:30am 21.9 25.5 19.8 88 1.3 CALM 0 0 0 0 1005.2 1005.2 0.0
01/08:00am 20.6 23.9 19.9 96 0.4 W 2 7 1 4 1005.1 1005.1 0.0
01/07:30am 19.2 22.1 19.0 99 0.1 W 2 6 1 3 1005.1 1005.1 0.0
01/07:00am 17.7 20.3 17.5 99 0.1 CALM 0 7 0 4 1004.9 1004.9 0.0
01/06:30am 17.9 20.6 17.7 99 0.1 CALM 0 0 0 0 1004.8 1004.8 0.0
01/06:00am 17.7 20.3 17.5 99 0.1 CALM 0 6 0 3 1004.6 1004.6 0.0
01/05:30am 18.0 20.7 17.8 99 0.1 CALM 0 0 0 0 1004.6 1004.6 0.0
01/05:00am 17.8 19.3 17.5 98 0.2 W 6 9 3 5 1004.5 1004.5 0.0
01/04:30am 18.2 20.6 17.9 98 0.2 W 2 9 1 5 1004.6 1004.6 0.0
01/04:00am 18.6 20.4 18.3 98 0.2 W 6 9 3 5 1004.8 1004.8 0.0
01/03:30am 18.9 20.7 18.4 97 0.3 SW 6 7 3 4 1005.2 1005.2 0.0
01/03:00am 19.3 22.4 18.6 96 0.4 CALM 0 9 0 5 1005.5 1005.5 0.0
01/02:30am 20.3 22.8 19.8 97 0.3 NNE 6 9 3 5 1005.7 1005.7 0.0
01/02:00am 20.0 22.2 19.5 97 0.3 SW 7 15 4 8 1006.2 1006.2 0.0
01/01:30am 19.2 22.0 18.9 98 0.2 NW 2 7 1 4 1006.6 1006.6 0.0
01/01:00am 19.4 21.9 19.1 98 0.2 NW 4 6 2 3 1007.2 1007.2 0.0
01/12:30am 19.5 22.8 19.0 97 0.3 CALM 0 0 0 0 1007.5 1007.5 0.0
01/12:00am 19.9 23.4 19.6 98 0.2 CALM 0 0 0 0 1007.8 1007.8 0.0
 
Date/Time
EDT
Temp
°C
App
Temp
°C
Dew
Point
Rel
Hum
%
Delta-T
°C
Wind Press
QNH
hPa
Press
MSL
hPa
Rain
since 9 am
mm
Dir
 
Spd
km/h
Gust
km/h
Spd
kts
Gust
kts
28/11:30pm 20.3 22.9 20.0 98 0.2 NW 6 7 3 4 1008.0 1008.0 0.0
28/11:00pm 20.5 23.0 20.2 98 0.2 NW 7 9 4 5 1008.2 1008.2 0.0
28/10:30pm 20.9 23.5 20.4 97 0.3 NW 7 9 4 5 1008.3 1008.3 0.0
28/10:00pm 21.0 24.1 20.3 96 0.5 NNW 4 9 2 5 1008.4 1008.4 0.0
28/09:30pm 21.7 25.8 20.7 94 0.6 CALM 0 0 0 0 1008.4 1008.4 0.0
28/09:00pm 22.1 25.7 20.6 91 1.0 N 2 6 1 3 1008.2 1008.2 0.0
28/08:30pm 23.3 26.5 21.2 88 1.4 N 6 9 3 5 1008.0 1008.0 0.0
28/08:00pm 23.7 26.4 21.4 87 1.5 NNE 9 15 5 8 1007.8 1007.8 0.0
28/07:30pm 24.0 25.6 21.5 86 1.7 NE 15 19 8 10 1007.4 1007.4 0.0
28/07:00pm 24.5 26.1 21.4 83 2.1 NE 15 20 8 11 1007.1 1007.1 0.0
28/06:30pm 25.0 25.5 21.1 79 2.6 NE 20 28 11 15 1007.1 1007.1 0.0
28/06:00pm 25.6 26.1 21.1 76 3.0 NE 20 32 11 17 1007.2 1007.2 0.0
28/05:30pm 25.9 25.9 20.9 74 3.3 NE 22 30 12 16 1007.5 1007.5 0.0
28/05:00pm 26.2 26.4 20.5 71 3.7 NE 20 30 11 16 1007.7 1007.7 0.0
28/04:30pm 26.6 26.6 20.9 71 3.8 NE 22 32 12 17 1007.7 1007.7 0.0
28/04:00pm 26.1 25.8 19.5 67 4.3 NE 20 26 11 14 1007.8 1007.8 0.0

Other Formats:

Comma delimited format used in spreadsheet applications
http://www.bom.gov.au/fwo/IDN60801/IDN60801.95748.axf

JavaScript Object Notation format (JSON) in row-major order
http://www.bom.gov.au/fwo/IDN60801/IDN60801.95748.json